createdAt,value
2018-12-05T00:00:14.068Z,18.02
2018-12-05T00:02:43.376Z,15.05
2018-12-05T00:05:12.968Z,15.72
2018-12-05T00:07:42.519Z,12.00
2018-12-05T00:10:11.766Z,21.65
2018-12-05T00:12:41.117Z,15.23
2018-12-05T00:15:10.434Z,16.17
2018-12-05T00:17:39.833Z,16.48
2018-12-05T00:20:09.093Z,17.77
2018-12-05T00:22:38.436Z,14.33
2018-12-05T00:25:07.768Z,16.45
2018-12-05T00:27:37.200Z,19.77
2018-12-05T00:30:06.661Z,18.07
2018-12-05T00:32:35.980Z,18.02
2018-12-05T00:35:05.529Z,15.23
2018-12-05T00:37:34.774Z,13.70
2018-12-05T00:40:04.485Z,20.12
2018-12-05T00:42:33.756Z,12.88
2018-12-05T00:45:03.223Z,12.47
2018-12-05T00:47:32.534Z,13.93
2018-12-05T00:50:02.712Z,16.50
2018-12-05T00:52:32.006Z,12.85
2018-12-05T00:55:01.285Z,10.23
2018-12-05T00:57:30.574Z,14.80
2018-12-05T00:59:59.814Z,17.82
2018-12-05T01:02:29.064Z,13.10
2018-12-05T01:04:58.321Z,16.17
2018-12-05T01:07:31.266Z,15.03
2018-12-05T01:10:01.056Z,15.53
2018-12-05T01:12:30.432Z,20.95
2018-12-05T01:14:59.645Z,15.25
2018-12-05T01:17:28.882Z,17.45
2018-12-05T01:19:58.133Z,25.43
2018-12-05T01:22:27.367Z,17.65
2018-12-05T01:24:56.539Z,13.72
2018-12-05T01:27:25.915Z,22.67
2018-12-05T01:29:56.101Z,22.60
2018-12-05T01:32:25.410Z,17.27
2018-12-05T01:34:54.657Z,19.35
2018-12-05T01:37:23.864Z,16.97
2018-12-05T01:39:53.104Z,18.42
2018-12-05T01:42:22.311Z,25.55
2018-12-05T01:44:55.852Z,16.40
2018-12-05T01:47:25.429Z,13.93
2018-12-05T01:50:03.399Z,11.63
2018-12-05T01:52:32.707Z,11.12
2018-12-05T01:55:01.940Z,12.50
2018-12-05T01:57:31.987Z,15.23
2018-12-05T02:00:01.320Z,15.25
2018-12-05T02:02:30.571Z,13.98
2018-12-05T02:04:59.792Z,13.98
2018-12-05T02:07:29.007Z,13.55
2018-12-05T02:09:58.287Z,10.70
2018-12-05T02:12:27.732Z,12.73
2018-12-05T02:14:57.037Z,14.93
2018-12-05T02:17:26.272Z,14.23
2018-12-05T02:19:55.644Z,14.03
2018-12-05T02:22:24.858Z,16.82
2018-12-05T02:24:54.541Z,18.98
2018-12-05T02:27:23.842Z,15.58
2018-12-05T02:29:59.134Z,13.98
2018-12-05T02:32:28.699Z,15.18
2018-12-05T02:34:57.974Z,11.03
2018-12-05T02:37:27.179Z,10.32
2018-12-05T02:39:57.417Z,13.53
2018-12-05T02:42:26.684Z,11.97
2018-12-05T02:44:57.394Z,12.13
2018-12-05T02:47:27.024Z,17.55
2018-12-05T02:49:56.278Z,19.80
2018-12-05T02:52:25.670Z,13.93
2018-12-05T02:54:54.897Z,13.50
2018-12-05T02:57:24.124Z,13.00
2018-12-05T02:59:53.411Z,11.53
2018-12-05T03:02:22.638Z,13.47
2018-12-05T03:04:51.816Z,14.77
2018-12-05T03:07:21.004Z,13.03
2018-12-05T03:09:50.217Z,11.97
2018-12-05T03:12:19.886Z,15.28
2018-12-05T03:14:49.429Z,15.13
2018-12-05T03:17:18.712Z,16.95
2018-12-05T03:19:47.950Z,21.97
2018-12-05T03:22:17.130Z,20.37
2018-12-05T03:24:46.400Z,17.27
2018-12-05T03:27:15.724Z,18.47
2018-12-05T03:29:45.555Z,21.87
2018-12-05T03:32:14.823Z,17.00
2018-12-05T03:34:44.035Z,18.30
2018-12-05T03:37:13.364Z,14.10
2018-12-05T03:39:42.669Z,16.35
2018-12-05T03:42:11.939Z,22.10
2018-12-05T03:44:41.298Z,19.40
2018-12-05T03:47:10.601Z,18.07
2018-12-05T03:49:39.864Z,20.27
2018-12-05T03:52:09.126Z,23.00
2018-12-05T03:54:38.467Z,24.30
2018-12-05T03:57:07.816Z,31.53
2018-12-05T03:59:37.042Z,22.67
2018-12-05T04:02:06.301Z,31.02
2018-12-05T04:04:35.591Z,22.70
2018-12-05T04:07:04.815Z,26.40
2018-12-05T04:09:34.040Z,24.57
2018-12-05T04:12:03.315Z,18.53
2018-12-05T04:14:33.199Z,15.90
2018-12-05T04:17:02.422Z,21.27
2018-12-05T04:19:31.794Z,17.13
2018-12-05T04:22:01.066Z,20.90
2018-12-05T04:24:30.328Z,19.17
2018-12-05T04:26:59.622Z,16.93
2018-12-05T04:29:28.797Z,16.93
2018-12-05T04:31:58.086Z,19.50
2018-12-05T04:34:27.313Z,15.33
2018-12-05T04:36:56.508Z,13.43
2018-12-05T04:39:25.729Z,16.10
2018-12-05T04:41:55.687Z,21.60
2018-12-05T04:44:24.930Z,14.80
2018-12-05T04:46:54.528Z,17.03
2018-12-05T04:49:23.688Z,16.43
2018-12-05T04:51:53.023Z,14.57
2018-12-05T04:54:22.244Z,15.47
2018-12-05T04:56:51.525Z,12.93
2018-12-05T04:59:20.790Z,12.03
2018-12-05T05:01:51.417Z,10.27
2018-12-05T05:04:20.612Z,11.70
2018-12-05T05:06:49.844Z,11.17
2018-12-05T05:09:19.061Z,10.50
2018-12-05T05:11:48.246Z,9.30
2018-12-05T05:14:17.524Z,11.43
2018-12-05T05:16:46.895Z,10.47
2018-12-05T05:19:16.253Z,12.20
2018-12-05T05:21:45.526Z,13.23
2018-12-05T05:24:14.780Z,13.60
2018-12-05T05:26:44.037Z,10.80
2018-12-05T05:29:13.280Z,11.47
2018-12-05T05:31:42.479Z,13.07
2018-12-05T05:34:11.702Z,19.63
2018-12-05T05:36:41.306Z,11.47
2018-12-05T05:39:10.509Z,13.57
2018-12-05T05:41:39.818Z,15.17
2018-12-05T05:44:10.276Z,16.97
2018-12-05T05:46:40.090Z,15.87
2018-12-05T05:49:09.370Z,13.87
2018-12-05T05:51:38.595Z,11.83
2018-12-05T05:54:07.782Z,16.97
2018-12-05T05:56:37.044Z,11.47
2018-12-05T05:59:06.377Z,18.37
2018-12-05T06:01:35.594Z,13.83
2018-12-05T06:04:04.814Z,17.37
2018-12-05T06:06:34.072Z,19.10
2018-12-05T06:09:03.581Z,21.67
2018-12-05T06:11:32.827Z,15.73
2018-12-05T06:14:02.064Z,18.97
2018-12-05T06:16:31.314Z,19.47
2018-12-05T06:19:00.894Z,18.13
2018-12-05T06:21:30.102Z,15.47
2018-12-05T06:23:59.418Z,14.40
2018-12-05T06:26:28.788Z,13.90
2018-12-05T06:28:57.976Z,15.93
2018-12-05T06:31:27.406Z,16.30
2018-12-05T06:33:56.709Z,20.07
2018-12-05T06:36:26.130Z,14.03
2018-12-05T06:38:55.340Z,18.73
2018-12-05T06:41:24.486Z,23.13
2018-12-05T06:43:53.875Z,19.77
2018-12-05T06:46:23.091Z,15.10
2018-12-05T06:48:52.317Z,14.00
2018-12-05T06:51:21.548Z,16.40
2018-12-05T06:53:51.457Z,16.77
2018-12-05T06:56:20.739Z,11.47
2018-12-05T06:58:49.915Z,14.67
2018-12-05T07:01:19.098Z,13.63
2018-12-05T07:03:48.463Z,14.63
2018-12-05T07:06:17.733Z,12.33
2018-12-05T07:08:46.977Z,14.57
2018-12-05T07:11:16.188Z,17.63
2018-12-05T07:13:45.501Z,15.57
2018-12-05T07:16:14.732Z,14.37
2018-12-05T07:18:44.052Z,17.13
2018-12-05T07:21:13.679Z,12.07
2018-12-05T07:23:42.855Z,13.43
2018-12-05T07:26:12.042Z,16.70
2018-12-05T07:28:41.360Z,15.07
2018-12-05T07:31:10.566Z,22.83
2018-12-05T07:33:39.808Z,19.90
2018-12-05T07:36:09.021Z,21.10
2018-12-05T07:38:38.388Z,17.90
2018-12-05T07:41:07.578Z,17.80
2018-12-05T07:43:36.746Z,20.13
2018-12-05T07:46:05.958Z,18.63
2018-12-05T07:48:35.217Z,17.70
2018-12-05T07:51:04.432Z,16.13
2018-12-05T07:53:33.606Z,14.13
2018-12-05T07:56:02.806Z,13.23
2018-12-05T07:58:32.304Z,11.27
2018-12-05T08:01:01.529Z,11.33
2018-12-05T08:03:30.751Z,12.43
2018-12-05T08:05:59.952Z,16.43
2018-12-05T08:08:29.216Z,13.37
2018-12-05T08:10:58.540Z,19.50
2018-12-05T08:13:27.725Z,14.27
2018-12-05T08:15:56.957Z,16.27
2018-12-05T08:18:26.170Z,20.07
2018-12-05T08:20:55.693Z,18.67
2018-12-05T08:23:25.149Z,14.10
2018-12-05T08:25:54.343Z,16.83
2018-12-05T08:28:23.507Z,18.17
2018-12-05T08:30:52.716Z,18.50
2018-12-05T08:33:21.960Z,19.67
2018-12-05T08:35:51.234Z,15.70
2018-12-05T08:38:20.416Z,19.90
2018-12-05T08:40:49.585Z,19.83
2018-12-05T08:43:19.075Z,20.27
2018-12-05T08:45:48.289Z,19.10
2018-12-05T08:48:17.510Z,22.90
2018-12-05T08:50:46.781Z,16.03
2018-12-05T08:53:16.053Z,15.33
2018-12-05T08:55:45.256Z,14.57
2018-12-05T08:58:14.417Z,15.70
2018-12-05T09:00:43.688Z,16.87
2018-12-05T09:03:12.905Z,19.17
2018-12-05T09:05:42.172Z,17.60
2018-12-05T09:08:11.342Z,17.47
2018-12-05T09:10:40.545Z,21.63
2018-12-05T09:13:09.741Z,16.80
2018-12-05T09:15:38.960Z,16.57
2018-12-05T09:18:08.114Z,18.10
2018-12-05T09:20:37.383Z,18.10
2018-12-05T09:23:06.580Z,17.67
2018-12-05T09:25:36.546Z,17.97
2018-12-05T09:28:07.763Z,22.33
2018-12-05T09:30:37.188Z,23.70
2018-12-05T09:33:06.409Z,18.43
2018-12-05T09:35:35.575Z,20.87
2018-12-05T09:38:04.815Z,20.40
2018-12-05T09:40:34.969Z,16.97
2018-12-05T09:43:04.162Z,20.80
2018-12-05T09:45:33.441Z,16.73
2018-12-05T09:48:02.735Z,24.87
2018-12-05T09:50:32.054Z,21.63
2018-12-05T09:53:01.267Z,17.73
2018-12-05T09:55:30.483Z,24.33
2018-12-05T09:57:59.710Z,24.13
2018-12-05T10:00:29.434Z,19.33
2018-12-05T10:02:58.584Z,23.93
2018-12-05T10:05:27.779Z,30.17
2018-12-05T10:07:57.042Z,27.27
2018-12-05T10:10:26.252Z,31.53
2018-12-05T10:12:55.650Z,27.20
2018-12-05T10:15:24.870Z,23.37
2018-12-05T10:17:54.084Z,22.73
2018-12-05T10:20:23.284Z,25.87
2018-12-05T10:22:52.517Z,28.10
2018-12-05T10:25:21.769Z,21.67
2018-12-05T10:27:51.509Z,20.43
2018-12-05T10:30:21.799Z,22.07
2018-12-05T10:32:51.045Z,16.23
2018-12-05T10:35:20.300Z,18.57
2018-12-05T10:37:49.569Z,17.20
2018-12-05T10:40:18.838Z,14.90
2018-12-05T10:42:48.084Z,22.70
2018-12-05T10:45:17.351Z,17.67
2018-12-05T10:47:46.698Z,15.27
2018-12-05T10:50:16.038Z,14.57
2018-12-05T10:52:45.267Z,15.17
2018-12-05T10:55:14.552Z,16.90
2018-12-05T10:57:43.838Z,17.60
2018-12-05T11:00:15.435Z,21.33
2018-12-05T11:05:59.458Z,21.53
2018-12-05T11:08:34.201Z,19.57
2018-12-05T11:11:08.830Z,24.73
2018-12-05T11:13:43.538Z,22.13
2018-12-05T11:19:26.491Z,21.00
2018-12-05T11:22:01.018Z,22.83
2018-12-05T11:24:35.795Z,21.27
2018-12-05T11:27:05.144Z,20.73
2018-12-05T11:29:34.503Z,21.63
2018-12-05T11:32:03.751Z,27.20
2018-12-05T11:34:33.004Z,31.47
2018-12-05T11:37:03.154Z,23.13
2018-12-05T11:39:32.412Z,22.77
2018-12-05T11:42:01.794Z,19.30
2018-12-05T11:44:30.996Z,16.40
2018-12-05T11:47:00.194Z,14.73
2018-12-05T11:49:30.496Z,15.93
2018-12-05T11:51:59.723Z,14.20
2018-12-05T11:54:29.133Z,13.37
2018-12-05T11:56:58.300Z,13.70
2018-12-05T11:59:27.659Z,12.10
2018-12-05T12:01:56.856Z,14.00
2018-12-05T12:04:26.094Z,16.57
2018-12-05T12:06:55.390Z,15.57
2018-12-05T12:09:24.603Z,16.90
2018-12-05T12:11:53.795Z,18.20
2018-12-05T12:14:23.023Z,19.03
2018-12-05T12:16:52.254Z,22.87
2018-12-05T12:19:21.541Z,19.33
2018-12-05T12:21:50.806Z,17.33
2018-12-05T12:24:20.135Z,19.57
2018-12-05T12:26:49.331Z,19.10
2018-12-05T12:29:18.605Z,19.47
2018-12-05T12:31:48.014Z,29.87
2018-12-05T12:34:17.270Z,22.17
2018-12-05T12:36:46.707Z,26.87
2018-12-05T12:39:16.866Z,22.30
2018-12-05T12:41:46.102Z,21.27
2018-12-05T12:44:15.409Z,22.43
2018-12-05T12:46:44.616Z,23.40
2018-12-05T12:49:13.865Z,22.97
2018-12-05T12:51:43.121Z,21.67
2018-12-05T12:54:12.352Z,25.47
2018-12-05T12:56:41.641Z,26.57
2018-12-05T12:59:10.887Z,25.60
2018-12-05T13:01:40.062Z,26.73
2018-12-05T13:04:09.258Z,23.30
2018-12-05T13:06:38.466Z,20.47
2018-12-05T13:09:08.553Z,20.63
2018-12-05T13:11:37.804Z,24.87
2018-12-05T13:14:07.014Z,30.97
2018-12-05T13:16:36.227Z,21.80
2018-12-05T13:19:05.471Z,23.80
2018-12-05T13:21:34.726Z,30.97
2018-12-05T13:24:04.008Z,26.77
2018-12-05T13:26:33.249Z,31.60
2018-12-05T13:29:02.508Z,20.70
2018-12-05T13:31:31.699Z,21.30
2018-12-05T13:34:01.034Z,20.77
2018-12-05T13:36:30.556Z,20.67
2018-12-05T13:38:59.800Z,20.53
2018-12-05T13:41:29.072Z,19.83
2018-12-05T13:43:58.365Z,21.30
2018-12-05T13:46:30.143Z,17.33
2018-12-05T13:51:32.798Z,18.30
2018-12-05T13:54:02.172Z,14.27
2018-12-05T13:56:31.487Z,18.60
2018-12-05T13:59:00.737Z,18.00
2018-12-05T14:01:30.027Z,17.37
2018-12-05T14:03:59.289Z,16.57
2018-12-05T14:06:28.569Z,13.33
2018-12-05T14:08:57.796Z,17.57
2018-12-05T14:11:27.317Z,18.93
2018-12-05T14:13:57.195Z,20.20
2018-12-05T14:16:26.433Z,16.10
2018-12-05T14:18:55.682Z,18.63
2018-12-05T14:21:25.096Z,28.47
2018-12-05T14:23:54.302Z,12.40
2018-12-05T14:26:23.530Z,19.73
2018-12-05T14:28:52.776Z,14.90
2018-12-05T14:31:22.054Z,13.93
2018-12-05T14:33:51.553Z,17.67
2018-12-05T14:36:20.861Z,14.00
2018-12-05T14:38:50.124Z,21.03
2018-12-05T14:41:19.406Z,19.23
2018-12-05T14:43:48.666Z,45.67
2018-12-05T14:46:18.002Z,29.90
2018-12-05T14:48:47.368Z,17.47
2018-12-05T14:51:16.587Z,15.50
2018-12-05T14:53:46.918Z,15.40
2018-12-05T14:56:16.304Z,17.48
2018-12-05T14:58:45.687Z,11.63
2018-12-05T15:01:15.008Z,11.70
2018-12-05T15:03:44.427Z,17.82
2018-12-05T15:06:13.643Z,19.80
2018-12-05T15:08:42.924Z,11.38
2018-12-05T15:11:12.235Z,10.93
2018-12-05T15:13:41.617Z,11.12
2018-12-05T15:16:11.286Z,10.03
2018-12-05T15:18:40.471Z,12.30
2018-12-05T15:21:09.726Z,16.20
2018-12-05T15:23:39.037Z,13.68
2018-12-05T15:26:08.330Z,12.93
2018-12-05T15:28:37.714Z,15.58
2018-12-05T15:31:07.048Z,24.77
2018-12-05T15:33:36.398Z,18.05
2018-12-05T15:36:05.886Z,11.60
2018-12-05T15:38:36.371Z,10.45
2018-12-05T15:41:05.744Z,12.58
2018-12-05T15:43:35.033Z,20.15
2018-12-05T15:46:04.394Z,15.35
2018-12-05T15:48:33.708Z,10.60
2018-12-05T15:51:03.042Z,11.43
2018-12-05T15:53:32.493Z,14.20
2018-12-05T15:56:01.731Z,13.62
2018-12-05T15:58:31.290Z,10.68
2018-12-05T16:01:00.643Z,22.62
2018-12-05T16:03:29.908Z,17.98
2018-12-05T16:05:59.163Z,11.48
2018-12-05T16:08:28.351Z,19.70
2018-12-05T16:10:57.743Z,13.45
2018-12-05T16:13:26.996Z,12.75
2018-12-05T16:15:56.460Z,19.62
2018-12-05T16:18:26.650Z,8.88
2018-12-05T16:20:56.114Z,19.60
2018-12-05T16:23:25.939Z,15.38
2018-12-05T16:25:55.407Z,13.98
2018-12-05T16:28:24.855Z,21.80
2018-12-05T16:30:54.637Z,17.00
2018-12-05T16:33:23.966Z,20.77
2018-12-05T16:35:53.268Z,13.05
2018-12-05T16:38:22.530Z,10.75
2018-12-05T16:40:51.757Z,14.03
2018-12-05T16:43:21.328Z,14.70
2018-12-05T16:45:50.646Z,13.58
2018-12-05T16:48:20.775Z,33.40
2018-12-05T16:50:51.992Z,16.97
2018-12-05T16:53:21.520Z,18.32
2018-12-05T16:55:50.961Z,8.78
2018-12-05T16:58:20.302Z,10.20
2018-12-05T17:00:49.584Z,14.78
2018-12-05T17:03:18.871Z,10.35
2018-12-05T17:05:48.153Z,12.35
2018-12-05T17:08:17.461Z,11.73
2018-12-05T17:10:47.087Z,14.45
2018-12-05T17:13:16.353Z,13.40
2018-12-05T17:15:45.599Z,11.55
2018-12-05T17:18:14.899Z,9.48
2018-12-05T17:20:44.370Z,18.25
2018-12-05T17:23:16.118Z,12.18
2018-12-05T17:25:46.647Z,17.02
2018-12-05T17:28:15.984Z,15.00
2018-12-05T17:30:45.242Z,10.75
2018-12-05T17:33:14.510Z,22.98
2018-12-05T17:35:43.878Z,9.10
2018-12-05T17:38:13.709Z,22.95
2018-12-05T17:40:42.992Z,15.23
2018-12-05T17:43:12.302Z,16.87
2018-12-05T17:45:41.633Z,9.80
2018-12-05T17:48:10.863Z,7.83
2018-12-05T17:50:44.418Z,17.02
2018-12-05T17:53:13.687Z,28.25
2018-12-05T17:55:43.005Z,8.60
2018-12-05T17:58:12.374Z,11.63
2018-12-05T18:00:41.785Z,8.15
2018-12-05T18:03:10.979Z,12.07
2018-12-05T18:05:40.199Z,11.18
2018-12-05T18:08:09.753Z,8.73
2018-12-05T18:10:39.033Z,7.78
2018-12-05T18:13:10.210Z,11.22
2018-12-05T18:15:39.504Z,21.57
2018-12-05T18:18:08.734Z,10.53
2018-12-05T18:20:37.961Z,5.35
2018-12-05T18:23:12.614Z,5.55
2018-12-05T18:25:42.111Z,15.35
2018-12-05T18:28:13.072Z,4.42
2018-12-05T18:30:42.662Z,7.22
2018-12-05T18:33:11.921Z,12.75
2018-12-05T18:35:49.979Z,17.73
2018-12-05T18:38:19.438Z,7.97
2018-12-05T18:40:48.957Z,9.10
2018-12-05T18:43:18.300Z,10.60
2018-12-05T18:45:48.058Z,6.87
2018-12-05T18:48:17.975Z,7.45
2018-12-05T18:50:47.241Z,15.15
2018-12-05T18:53:16.578Z,8.13
2018-12-05T18:55:45.838Z,15.15
2018-12-05T18:58:15.179Z,9.13
2018-12-05T19:00:44.400Z,8.90
2018-12-05T19:03:13.857Z,8.43
2018-12-05T19:05:46.515Z,10.95
2018-12-05T19:08:16.085Z,11.95
2018-12-05T19:10:45.250Z,11.33
2018-12-05T19:13:14.448Z,12.30
2018-12-05T19:15:43.761Z,7.70
2018-12-05T19:18:13.041Z,10.58
2018-12-05T19:20:42.287Z,10.98
2018-12-05T19:23:11.808Z,8.45
2018-12-05T19:25:41.241Z,8.85
2018-12-05T19:28:10.535Z,4.53
2018-12-05T19:30:40.032Z,3.20
2018-12-05T19:33:09.441Z,7.17
2018-12-05T19:35:38.719Z,12.28
2018-12-05T19:38:08.615Z,12.25
2018-12-05T19:40:38.009Z,11.15
2018-12-05T19:43:07.246Z,8.00
2018-12-05T19:45:36.688Z,8.93
2018-12-05T19:48:06.231Z,20.08
2018-12-05T19:50:36.818Z,8.08
2018-12-05T19:53:06.332Z,6.97
2018-12-05T19:55:35.660Z,21.07
2018-12-05T19:58:04.879Z,8.55
2018-12-05T20:00:34.063Z,5.28
2018-12-05T20:03:03.302Z,12.35
2018-12-05T20:05:32.935Z,5.80
2018-12-05T20:08:02.299Z,9.80
2018-12-05T20:10:31.585Z,16.02
2018-12-05T20:13:01.021Z,12.23
2018-12-05T20:15:30.478Z,6.15
2018-12-05T20:18:00.872Z,27.15
2018-12-05T20:20:30.178Z,7.22
2018-12-05T20:22:59.419Z,8.38
2018-12-05T20:25:28.696Z,10.25
2018-12-05T20:27:57.947Z,9.45
2018-12-05T20:30:27.163Z,4.80
2018-12-05T20:32:56.371Z,11.48
2018-12-05T20:35:27.511Z,5.75
2018-12-05T20:37:57.162Z,10.82
2018-12-05T20:40:26.643Z,10.08
2018-12-05T20:42:55.964Z,12.00
2018-12-05T20:45:25.167Z,9.68
2018-12-05T20:47:54.446Z,13.13
2018-12-05T20:50:23.814Z,12.68
2018-12-05T20:52:53.053Z,6.28
2018-12-05T20:55:22.574Z,12.65
2018-12-05T20:57:51.943Z,6.12
2018-12-05T21:00:21.206Z,4.80
2018-12-05T21:02:50.405Z,5.22
2018-12-05T21:05:21.076Z,8.93
2018-12-05T21:07:50.370Z,5.37
2018-12-05T21:10:19.758Z,9.75
2018-12-05T21:12:49.094Z,13.45
2018-12-05T21:15:18.699Z,10.58
2018-12-05T21:17:48.041Z,6.40
2018-12-05T21:20:17.656Z,11.88
2018-12-05T21:22:47.517Z,8.80
2018-12-05T21:25:20.287Z,8.58
2018-12-05T21:27:50.798Z,10.98
2018-12-05T21:30:20.258Z,12.63
2018-12-05T21:32:49.584Z,13.30
2018-12-05T21:35:19.690Z,11.08
2018-12-05T21:37:49.233Z,5.55
2018-12-05T21:40:18.472Z,9.78
2018-12-05T21:42:48.137Z,7.12
2018-12-05T21:45:18.553Z,9.28
2018-12-05T21:47:47.840Z,6.87
2018-12-05T21:50:17.202Z,11.40
2018-12-05T21:52:46.503Z,6.47
2018-12-05T21:55:15.736Z,8.78
2018-12-05T21:57:45.027Z,10.15
2018-12-05T22:00:14.451Z,8.10
2018-12-05T22:02:44.201Z,9.15
2018-12-05T22:05:13.647Z,8.45
2018-12-05T22:07:43.000Z,12.68
2018-12-05T22:10:12.486Z,9.28
2018-12-05T22:12:42.725Z,8.18
2018-12-05T22:15:12.082Z,15.43
2018-12-05T22:17:41.326Z,7.12
2018-12-05T22:20:10.671Z,8.25
2018-12-05T22:22:39.923Z,21.10
2018-12-05T22:25:09.202Z,7.40
2018-12-05T22:27:38.463Z,8.15
2018-12-05T22:30:08.858Z,8.83
2018-12-05T22:32:38.153Z,5.60
2018-12-05T22:35:07.657Z,10.65
2018-12-05T22:37:36.889Z,6.90
2018-12-05T22:40:08.468Z,12.07
2018-12-05T22:42:37.722Z,10.38
2018-12-05T22:45:07.293Z,8.88
2018-12-05T22:47:36.623Z,10.65
2018-12-05T22:50:06.492Z,8.00
2018-12-05T22:52:35.761Z,8.18
2018-12-05T22:55:05.432Z,9.33
2018-12-05T22:57:34.583Z,12.98
2018-12-05T23:00:05.569Z,9.78
2018-12-05T23:02:34.886Z,5.62
2018-12-05T23:05:06.245Z,12.00
2018-12-05T23:07:35.501Z,7.42
2018-12-05T23:10:06.393Z,10.25
2018-12-05T23:12:36.975Z,16.05
2018-12-05T23:15:06.367Z,12.58
2018-12-05T23:17:35.532Z,18.17
2018-12-05T23:20:07.225Z,14.43
2018-12-05T23:22:36.627Z,17.85
2018-12-05T23:25:05.948Z,17.10
2018-12-05T23:27:35.194Z,16.70
2018-12-05T23:30:05.047Z,8.60
2018-12-05T23:32:34.367Z,13.72
2018-12-05T23:35:03.677Z,14.38
2018-12-05T23:37:32.968Z,14.43
2018-12-05T23:40:04.310Z,13.35
2018-12-05T23:42:33.577Z,11.08
2018-12-05T23:45:02.894Z,9.15
2018-12-05T23:47:32.595Z,19.25
2018-12-05T23:50:01.814Z,10.13
2018-12-05T23:52:31.050Z,10.32
2018-12-05T23:55:00.270Z,18.07
2018-12-05T23:57:29.516Z,16.60
2018-12-05T23:59:58.781Z,12.95
